sensor_id;sensor_type;location;lat;lon;timestamp;noise_LAeq;noise_LA_min;noise_LA_max;noise_LA01;noise_LA95
72805;Laerm;60920;48.748;19.142;2023-05-14T00:02:13;37.59;30.92;60.41;;
72805;Laerm;60920;48.748;19.142;2023-05-14T00:04:38;36.60;31.33;58.11;;
72805;Laerm;60920;48.748;19.142;2023-05-14T00:07:04;34.00;31.09;43.68;;
72805;Laerm;60920;48.748;19.142;2023-05-14T00:09:29;33.93;31.61;43.01;;
72805;Laerm;60920;48.748;19.142;2023-05-14T00:11:55;33.50;31.74;36.96;;
72805;Laerm;60920;48.748;19.142;2023-05-14T00:14:20;33.07;31.40;36.82;;
72805;Laerm;60920;48.748;19.142;2023-05-14T00:16:45;33.28;30.99;41.35;;
72805;Laerm;60920;48.748;19.142;2023-05-14T00:19:11;32.93;31.07;37.97;;
72805;Laerm;60920;48.748;19.142;2023-05-14T00:21:36;32.97;30.62;42.29;;
72805;Laerm;60920;48.748;19.142;2023-05-14T00:24:01;40.58;30.90;61.86;;
72805;Laerm;60920;48.748;19.142;2023-05-14T00:26:27;37.95;30.95;49.66;;
72805;Laerm;60920;48.748;19.142;2023-05-14T00:28:52;35.46;31.40;50.69;;
72805;Laerm;60920;48.748;19.142;2023-05-14T00:31:18;40.29;31.94;64.53;;
72805;Laerm;60920;48.748;19.142;2023-05-14T00:33:43;41.35;32.37;64.97;;
72805;Laerm;60920;48.748;19.142;2023-05-14T00:36:08;47.50;31.98;66.21;;
72805;Laerm;60920;48.748;19.142;2023-05-14T00:38:34;33.72;31.89;38.45;;
72805;Laerm;60920;48.748;19.142;2023-05-14T00:40:59;33.49;31.77;35.92;;
72805;Laerm;60920;48.748;19.142;2023-05-14T00:43:24;33.79;32.10;36.98;;
72805;Laerm;60920;48.748;19.142;2023-05-14T00:45:52;33.43;31.71;35.77;;
72805;Laerm;60920;48.748;19.142;2023-05-14T00:48:18;33.39;31.56;35.84;;
72805;Laerm;60920;48.748;19.142;2023-05-14T00:50:44;33.46;31.39;40.14;;
72805;Laerm;60920;48.748;19.142;2023-05-14T00:53:09;33.29;31.47;36.87;;
72805;Laerm;60920;48.748;19.142;2023-05-14T00:55:39;33.18;31.52;36.33;;
72805;Laerm;60920;48.748;19.142;2023-05-14T00:58:08;33.15;30.75;36.18;;
72805;Laerm;60920;48.748;19.142;2023-05-14T01:00:34;33.08;31.38;35.09;;
72805;Laerm;60920;48.748;19.142;2023-05-14T01:03:00;33.10;31.49;38.39;;
72805;Laerm;60920;48.748;19.142;2023-05-14T01:05:34;33.61;31.49;37.03;;
72805;Laerm;60920;48.748;19.142;2023-05-14T01:11:03;33.19;31.57;36.21;;
72805;Laerm;60920;48.748;19.142;2023-05-14T01:16:05;33.11;31.29;35.79;;
72805;Laerm;60920;48.748;19.142;2023-05-14T01:18:32;32.92;31.26;35.79;;
72805;Laerm;60920;48.748;19.142;2023-05-14T01:20:58;33.32;31.45;38.75;;
72805;Laerm;60920;48.748;19.142;2023-05-14T01:23:23;33.28;31.54;37.14;;
72805;Laerm;60920;48.748;19.142;2023-05-14T01:25:49;33.61;31.93;39.17;;
72805;Laerm;60920;48.748;19.142;2023-05-14T01:33:09;34.33;32.25;36.97;;
72805;Laerm;60920;48.748;19.142;2023-05-14T01:35:35;33.64;32.00;35.45;;
72805;Laerm;60920;48.748;19.142;2023-05-14T01:38:01;33.53;31.82;35.32;;
72805;Laerm;60920;48.748;19.142;2023-05-14T01:40:27;33.49;31.57;35.18;;
72805;Laerm;60920;48.748;19.142;2023-05-14T01:42:54;33.44;31.63;35.95;;
72805;Laerm;60920;48.748;19.142;2023-05-14T01:45:21;33.63;31.82;37.40;;
72805;Laerm;60920;48.748;19.142;2023-05-14T01:47:46;34.09;32.19;38.81;;
72805;Laerm;60920;48.748;19.142;2023-05-14T01:50:12;34.57;32.33;40.60;;
72805;Laerm;60920;48.748;19.142;2023-05-14T01:52:37;34.57;32.84;37.74;;
72805;Laerm;60920;48.748;19.142;2023-05-14T01:55:03;34.47;32.62;38.00;;
72805;Laerm;60920;48.748;19.142;2023-05-14T01:57:29;34.53;32.66;38.57;;
72805;Laerm;60920;48.748;19.142;2023-05-14T01:59:54;34.60;32.61;44.15;;
72805;Laerm;60920;48.748;19.142;2023-05-14T02:02:19;34.48;32.18;38.79;;
72805;Laerm;60920;48.748;19.142;2023-05-14T02:04:45;35.05;32.58;39.22;;
72805;Laerm;60920;48.748;19.142;2023-05-14T02:07:10;34.89;32.91;39.47;;
72805;Laerm;60920;48.748;19.142;2023-05-14T02:09:36;35.11;32.72;41.28;;
72805;Laerm;60920;48.748;19.142;2023-05-14T02:12:01;35.30;32.82;41.98;;
72805;Laerm;60920;48.748;19.142;2023-05-14T02:14:26;35.84;33.26;40.40;;
72805;Laerm;60920;48.748;19.142;2023-05-14T02:16:52;35.71;33.15;40.73;;
72805;Laerm;60920;48.748;19.142;2023-05-14T02:19:17;35.06;32.61;40.88;;
72805;Laerm;60920;48.748;19.142;2023-05-14T02:21:42;35.38;32.79;41.44;;
72805;Laerm;60920;48.748;19.142;2023-05-14T02:24:07;35.99;32.77;47.56;;
72805;Laerm;60920;48.748;19.142;2023-05-14T02:26:33;35.66;32.95;41.51;;
72805;Laerm;60920;48.748;19.142;2023-05-14T02:28:58;35.64;32.81;42.57;;
72805;Laerm;60920;48.748;19.142;2023-05-14T02:31:23;35.85;32.72;43.67;;
72805;Laerm;60920;48.748;19.142;2023-05-14T02:33:49;34.93;32.57;41.95;;
72805;Laerm;60920;48.748;19.142;2023-05-14T02:36:14;35.35;32.57;44.62;;
72805;Laerm;60920;48.748;19.142;2023-05-14T02:38:41;35.42;32.65;41.77;;
72805;Laerm;60920;48.748;19.142;2023-05-14T02:41:06;34.63;32.26;40.65;;
72805;Laerm;60920;48.748;19.142;2023-05-14T02:43:31;35.42;31.99;51.63;;
72805;Laerm;60920;48.748;19.142;2023-05-14T02:45:56;36.43;32.06;52.02;;
72805;Laerm;60920;48.748;19.142;2023-05-14T02:48:22;36.74;32.36;49.48;;
72805;Laerm;60920;48.748;19.142;2023-05-14T02:50:48;34.70;32.19;46.83;;
72805;Laerm;60920;48.748;19.142;2023-05-14T02:53:15;35.52;32.37;46.81;;
72805;Laerm;60920;48.748;19.142;2023-05-14T02:55:40;35.56;32.63;43.25;;
72805;Laerm;60920;48.748;19.142;2023-05-14T02:58:05;35.28;32.25;42.78;;
72805;Laerm;60920;48.748;19.142;2023-05-14T03:00:30;36.17;32.52;46.50;;
72805;Laerm;60920;48.748;19.142;2023-05-14T03:02:56;35.56;32.42;47.06;;
72805;Laerm;60920;48.748;19.142;2023-05-14T03:05:21;34.52;32.28;38.88;;
72805;Laerm;60920;48.748;19.142;2023-05-14T03:07:46;35.40;32.46;45.18;;
72805;Laerm;60920;48.748;19.142;2023-05-14T03:10:12;35.34;32.32;44.08;;
72805;Laerm;60920;48.748;19.142;2023-05-14T03:12:37;35.54;32.69;44.15;;
72805;Laerm;60920;48.748;19.142;2023-05-14T03:15:03;34.69;32.42;46.02;;
72805;Laerm;60920;48.748;19.142;2023-05-14T03:17:28;35.47;33.07;42.51;;
72805;Laerm;60920;48.748;19.142;2023-05-14T03:19:53;36.21;33.69;42.22;;
72805;Laerm;60920;48.748;19.142;2023-05-14T03:22:18;36.51;34.29;41.21;;
72805;Laerm;60920;48.748;19.142;2023-05-14T03:24:44;36.63;34.44;45.71;;
72805;Laerm;60920;48.748;19.142;2023-05-14T03:27:09;36.38;34.16;38.52;;
72805;Laerm;60920;48.748;19.142;2023-05-14T03:29:34;36.26;34.00;39.14;;
72805;Laerm;60920;48.748;19.142;2023-05-14T03:32:00;36.17;34.00;38.90;;
72805;Laerm;60920;48.748;19.142;2023-05-14T03:34:25;36.23;33.47;45.75;;
72805;Laerm;60920;48.748;19.142;2023-05-14T03:36:50;36.60;34.51;39.79;;
72805;Laerm;60920;48.748;19.142;2023-05-14T03:39:16;36.42;34.07;38.72;;
72805;Laerm;60920;48.748;19.142;2023-05-14T03:41:45;36.48;34.32;42.98;;
72805;Laerm;60920;48.748;19.142;2023-05-14T03:44:11;36.82;34.79;39.03;;
72805;Laerm;60920;48.748;19.142;2023-05-14T03:46:36;37.09;34.97;40.56;;
72805;Laerm;60920;48.748;19.142;2023-05-14T03:49:02;37.75;34.86;40.65;;
72805;Laerm;60920;48.748;19.142;2023-05-14T03:51:27;36.97;34.73;41.48;;
72805;Laerm;60920;48.748;19.142;2023-05-14T03:53:52;37.09;34.55;40.71;;
72805;Laerm;60920;48.748;19.142;2023-05-14T03:56:18;37.35;34.46;40.27;;
72805;Laerm;60920;48.748;19.142;2023-05-14T03:58:43;37.12;34.39;40.66;;
72805;Laerm;60920;48.748;19.142;2023-05-14T04:01:08;36.86;34.34;39.57;;
72805;Laerm;60920;48.748;19.142;2023-05-14T04:03:33;37.36;34.91;41.34;;
72805;Laerm;60920;48.748;19.142;2023-05-14T04:05:59;37.40;34.85;41.93;;
72805;Laerm;60920;48.748;19.142;2023-05-14T04:08:25;37.62;34.73;41.83;;
72805;Laerm;60920;48.748;19.142;2023-05-14T04:10:50;36.88;34.54;40.50;;
72805;Laerm;60920;48.748;19.142;2023-05-14T04:13:15;36.10;33.95;41.05;;
72805;Laerm;60920;48.748;19.142;2023-05-14T04:15:41;36.13;33.80;39.20;;
72805;Laerm;60920;48.748;19.142;2023-05-14T04:18:06;36.28;34.07;39.25;;
72805;Laerm;60920;48.748;19.142;2023-05-14T04:20:31;36.74;34.24;39.49;;
72805;Laerm;60920;48.748;19.142;2023-05-14T04:22:57;37.07;34.66;39.48;;
72805;Laerm;60920;48.748;19.142;2023-05-14T04:25:23;37.56;34.67;47.46;;
72805;Laerm;60920;48.748;19.142;2023-05-14T04:27:48;37.85;35.45;40.48;;
72805;Laerm;60920;48.748;19.142;2023-05-14T04:30:13;38.34;35.66;42.58;;
72805;Laerm;60920;48.748;19.142;2023-05-14T04:32:39;38.54;36.12;43.89;;
72805;Laerm;60920;48.748;19.142;2023-05-14T04:35:05;38.13;35.51;41.17;;
72805;Laerm;60920;48.748;19.142;2023-05-14T04:37:30;37.36;35.07;43.76;;
72805;Laerm;60920;48.748;19.142;2023-05-14T04:39:57;37.29;35.25;40.43;;
72805;Laerm;60920;48.748;19.142;2023-05-14T04:42:22;37.41;34.99;44.27;;
72805;Laerm;60920;48.748;19.142;2023-05-14T04:44:48;37.31;34.77;46.52;;
72805;Laerm;60920;48.748;19.142;2023-05-14T04:47:13;36.83;34.58;39.77;;
72805;Laerm;60920;48.748;19.142;2023-05-14T04:49:39;36.80;34.50;39.09;;
72805;Laerm;60920;48.748;19.142;2023-05-14T04:52:05;36.86;34.70;43.67;;
72805;Laerm;60920;48.748;19.142;2023-05-14T04:54:30;36.82;34.55;40.22;;
72805;Laerm;60920;48.748;19.142;2023-05-14T04:56:55;36.57;34.13;41.18;;
72805;Laerm;60920;48.748;19.142;2023-05-14T04:59:21;36.27;34.05;39.01;;
72805;Laerm;60920;48.748;19.142;2023-05-14T05:01:46;36.15;33.84;40.22;;
72805;Laerm;60920;48.748;19.142;2023-05-14T05:04:12;36.30;34.08;41.23;;
72805;Laerm;60920;48.748;19.142;2023-05-14T05:06:37;36.40;33.80;42.52;;
72805;Laerm;60920;48.748;19.142;2023-05-14T05:09:03;36.01;33.82;43.51;;
72805;Laerm;60920;48.748;19.142;2023-05-14T05:11:28;35.67;33.16;48.12;;
72805;Laerm;60920;48.748;19.142;2023-05-14T05:13:53;35.43;33.00;40.24;;
72805;Laerm;60920;48.748;19.142;2023-05-14T05:16:19;35.10;32.36;39.78;;
72805;Laerm;60920;48.748;19.142;2023-05-14T05:18:44;34.31;31.89;39.93;;
72805;Laerm;60920;48.748;19.142;2023-05-14T05:21:09;34.38;31.84;38.93;;
72805;Laerm;60920;48.748;19.142;2023-05-14T05:23:35;34.39;31.63;40.83;;
72805;Laerm;60920;48.748;19.142;2023-05-14T05:26:00;33.68;31.29;40.07;;
72805;Laerm;60920;48.748;19.142;2023-05-14T05:28:26;33.79;31.41;41.34;;
72805;Laerm;60920;48.748;19.142;2023-05-14T05:30:51;32.86;30.87;41.79;;
72805;Laerm;60920;48.748;19.142;2023-05-14T05:33:17;34.29;31.45;38.61;;
72805;Laerm;60920;48.748;19.142;2023-05-14T05:35:42;34.12;31.06;44.76;;
72805;Laerm;60920;48.748;19.142;2023-05-14T05:38:08;33.89;29.91;40.66;;
72805;Laerm;60920;48.748;19.142;2023-05-14T05:40:33;32.93;30.10;40.70;;
72805;Laerm;60920;48.748;19.142;2023-05-14T05:42:59;39.57;30.25;56.19;;
72805;Laerm;60920;48.748;19.142;2023-05-14T05:45:24;34.22;30.46;39.82;;
72805;Laerm;60920;48.748;19.142;2023-05-14T05:47:49;32.88;29.63;43.22;;
72805;Laerm;60920;48.748;19.142;2023-05-14T05:50:15;32.39;29.58;39.67;;
72805;Laerm;60920;48.748;19.142;2023-05-14T05:52:40;32.61;29.46;43.48;;
72805;Laerm;60920;48.748;19.142;2023-05-14T05:55:05;33.55;29.07;51.82;;
72805;Laerm;60920;48.748;19.142;2023-05-14T05:57:31;31.97;29.06;38.59;;
72805;Laerm;60920;48.748;19.142;2023-05-14T05:59:56;32.06;29.01;40.12;;
72805;Laerm;60920;48.748;19.142;2023-05-14T06:02:22;32.00;28.70;40.45;;
72805;Laerm;60920;48.748;19.142;2023-05-14T06:04:49;32.66;28.63;41.69;;
72805;Laerm;60920;48.748;19.142;2023-05-14T06:07:14;31.67;28.39;36.40;;
72805;Laerm;60920;48.748;19.142;2023-05-14T06:09:39;30.90;28.31;33.70;;
72805;Laerm;60920;48.748;19.142;2023-05-14T06:12:05;31.65;28.63;42.77;;
72805;Laerm;60920;48.748;19.142;2023-05-14T06:14:30;38.88;28.72;55.07;;
72805;Laerm;60920;48.748;19.142;2023-05-14T06:16:55;33.57;29.80;42.01;;
72805;Laerm;60920;48.748;19.142;2023-05-14T06:19:21;32.91;29.33;37.23;;
72805;Laerm;60920;48.748;19.142;2023-05-14T06:21:46;32.25;28.57;39.06;;
72805;Laerm;60920;48.748;19.142;2023-05-14T06:24:12;32.57;29.20;41.36;;
72805;Laerm;60920;48.748;19.142;2023-05-14T06:26:37;32.67;29.44;39.93;;
72805;Laerm;60920;48.748;19.142;2023-05-14T06:29:03;33.05;29.17;42.22;;
72805;Laerm;60920;48.748;19.142;2023-05-14T06:31:28;32.93;29.30;41.72;;
72805;Laerm;60920;48.748;19.142;2023-05-14T06:33:53;33.61;29.56;39.57;;
72805;Laerm;60920;48.748;19.142;2023-05-14T06:36:19;33.08;29.11;40.90;;
72805;Laerm;60920;48.748;19.142;2023-05-14T06:38:44;33.16;28.85;40.08;;
72805;Laerm;60920;48.748;19.142;2023-05-14T06:41:09;32.79;29.90;37.65;;
72805;Laerm;60920;48.748;19.142;2023-05-14T06:43:34;33.10;30.11;37.58;;
72805;Laerm;60920;48.748;19.142;2023-05-14T06:46:00;33.19;29.71;39.24;;
72805;Laerm;60920;48.748;19.142;2023-05-14T06:48:25;33.42;29.54;42.24;;
72805;Laerm;60920;48.748;19.142;2023-05-14T06:50:53;33.65;29.09;43.81;;
72805;Laerm;60920;48.748;19.142;2023-05-14T06:53:18;33.55;29.01;40.44;;
72805;Laerm;60920;48.748;19.142;2023-05-14T06:55:45;34.24;30.81;41.64;;
72805;Laerm;60920;48.748;19.142;2023-05-14T06:58:11;33.84;29.51;41.34;;
72805;Laerm;60920;48.748;19.142;2023-05-14T07:00:36;33.24;28.89;41.12;;
72805;Laerm;60920;48.748;19.142;2023-05-14T07:03:02;33.57;28.78;46.02;;
72805;Laerm;60920;48.748;19.142;2023-05-14T07:05:27;33.24;29.37;38.60;;
72805;Laerm;60920;48.748;19.142;2023-05-14T07:07:53;33.02;29.24;40.84;;
72805;Laerm;60920;48.748;19.142;2023-05-14T07:10:18;33.14;29.98;38.97;;
72805;Laerm;60920;48.748;19.142;2023-05-14T07:12:43;33.55;29.54;44.83;;
72805;Laerm;60920;48.748;19.142;2023-05-14T07:15:09;33.97;29.70;48.08;;
72805;Laerm;60920;48.748;19.142;2023-05-14T07:17:35;33.97;28.99;42.86;;
72805;Laerm;60920;48.748;19.142;2023-05-14T07:20:01;33.79;29.76;47.78;;
72805;Laerm;60920;48.748;19.142;2023-05-14T07:22:27;33.04;28.87;46.35;;
72805;Laerm;60920;48.748;19.142;2023-05-14T07:24:52;31.95;27.94;40.72;;
72805;Laerm;60920;48.748;19.142;2023-05-14T07:27:17;34.06;28.90;48.41;;
72805;Laerm;60920;48.748;19.142;2023-05-14T07:29:42;35.94;28.92;50.65;;
72805;Laerm;60920;48.748;19.142;2023-05-14T07:32:08;33.45;29.04;47.20;;
72805;Laerm;60920;48.748;19.142;2023-05-14T07:34:33;32.81;29.10;46.00;;
72805;Laerm;60920;48.748;19.142;2023-05-14T07:36:58;32.96;28.28;45.77;;
72805;Laerm;60920;48.748;19.142;2023-05-14T07:39:24;32.95;29.31;43.93;;
72805;Laerm;60920;48.748;19.142;2023-05-14T07:41:50;32.67;28.78;45.42;;
72805;Laerm;60920;48.748;19.142;2023-05-14T07:44:15;32.90;28.82;43.73;;
72805;Laerm;60920;48.748;19.142;2023-05-14T07:46:40;33.61;28.86;48.82;;
72805;Laerm;60920;48.748;19.142;2023-05-14T07:49:06;32.43;29.47;44.81;;
72805;Laerm;60920;48.748;19.142;2023-05-14T07:51:31;32.59;28.67;43.55;;
72805;Laerm;60920;48.748;19.142;2023-05-14T07:53:57;32.45;28.70;42.17;;
72805;Laerm;60920;48.748;19.142;2023-05-14T07:56:22;33.00;29.28;44.29;;
72805;Laerm;60920;48.748;19.142;2023-05-14T07:58:48;33.20;29.37;43.19;;
72805;Laerm;60920;48.748;19.142;2023-05-14T08:01:13;33.18;29.00;51.44;;
72805;Laerm;60920;48.748;19.142;2023-05-14T08:03:40;32.05;28.94;44.24;;
72805;Laerm;60920;48.748;19.142;2023-05-14T08:06:05;33.02;28.67;44.56;;
72805;Laerm;60920;48.748;19.142;2023-05-14T08:08:30;33.02;29.44;44.30;;
72805;Laerm;60920;48.748;19.142;2023-05-14T08:10:56;34.24;28.88;54.60;;
72805;Laerm;60920;48.748;19.142;2023-05-14T08:13:21;33.59;29.64;47.87;;
72805;Laerm;60920;48.748;19.142;2023-05-14T08:15:47;33.72;29.18;46.58;;
72805;Laerm;60920;48.748;19.142;2023-05-14T08:18:13;32.96;28.58;44.34;;
72805;Laerm;60920;48.748;19.142;2023-05-14T08:20:38;32.26;28.35;41.60;;
72805;Laerm;60920;48.748;19.142;2023-05-14T08:23:03;32.48;28.91;39.51;;
72805;Laerm;60920;48.748;19.142;2023-05-14T08:25:29;32.78;28.69;43.95;;
72805;Laerm;60920;48.748;19.142;2023-05-14T08:27:54;32.89;28.73;43.22;;
72805;Laerm;60920;48.748;19.142;2023-05-14T08:30:19;32.76;28.87;41.45;;
72805;Laerm;60920;48.748;19.142;2023-05-14T08:32:45;33.06;29.00;43.36;;
72805;Laerm;60920;48.748;19.142;2023-05-14T08:35:11;33.33;29.11;46.64;;
72805;Laerm;60920;48.748;19.142;2023-05-14T08:37:36;33.13;28.44;40.81;;
72805;Laerm;60920;48.748;19.142;2023-05-14T08:40:02;34.45;29.54;48.12;;
72805;Laerm;60920;48.748;19.142;2023-05-14T08:42:27;32.56;28.26;39.58;;
72805;Laerm;60920;48.748;19.142;2023-05-14T08:45:00;33.51;29.88;44.99;;
72805;Laerm;60920;48.748;19.142;2023-05-14T08:47:26;33.84;28.81;45.55;;
72805;Laerm;60920;48.748;19.142;2023-05-14T08:49:54;33.34;29.79;43.57;;
72805;Laerm;60920;48.748;19.142;2023-05-14T08:52:22;33.74;29.78;42.11;;
72805;Laerm;60920;48.748;19.142;2023-05-14T08:54:48;33.81;29.48;41.29;;
72805;Laerm;60920;48.748;19.142;2023-05-14T08:57:14;33.93;29.54;46.09;;
72805;Laerm;60920;48.748;19.142;2023-05-14T08:59:42;33.61;30.02;49.71;;
72805;Laerm;60920;48.748;19.142;2023-05-14T09:02:07;32.72;29.37;41.73;;
72805;Laerm;60920;48.748;19.142;2023-05-14T09:04:34;32.74;28.84;38.08;;
72805;Laerm;60920;48.748;19.142;2023-05-14T09:07:01;33.46;29.16;40.39;;
72805;Laerm;60920;48.748;19.142;2023-05-14T09:09:26;32.72;28.97;37.83;;
72805;Laerm;60920;48.748;19.142;2023-05-14T09:11:52;33.10;29.34;42.69;;
72805;Laerm;60920;48.748;19.142;2023-05-14T09:14:18;33.74;28.94;46.18;;
72805;Laerm;60920;48.748;19.142;2023-05-14T09:16:44;33.15;28.85;48.71;;
72805;Laerm;60920;48.748;19.142;2023-05-14T09:19:10;33.92;29.43;42.83;;
72805;Laerm;60920;48.748;19.142;2023-05-14T09:21:35;33.20;29.10;49.53;;
72805;Laerm;60920;48.748;19.142;2023-05-14T09:24:01;34.05;30.63;42.56;;
72805;Laerm;60920;48.748;19.142;2023-05-14T09:26:26;34.52;29.58;51.03;;
72805;Laerm;60920;48.748;19.142;2023-05-14T09:28:56;32.45;28.78;40.70;;
72805;Laerm;60920;48.748;19.142;2023-05-14T09:31:24;34.30;29.96;47.50;;
72805;Laerm;60920;48.748;19.142;2023-05-14T09:33:50;32.40;28.87;45.66;;
72805;Laerm;60920;48.748;19.142;2023-05-14T09:36:16;32.94;28.42;47.50;;
72805;Laerm;60920;48.748;19.142;2023-05-14T09:38:41;33.56;30.00;40.25;;
72805;Laerm;60920;48.748;19.142;2023-05-14T09:41:07;33.72;29.13;38.18;;
72805;Laerm;60920;48.748;19.142;2023-05-14T09:43:32;33.58;28.86;48.33;;
72805;Laerm;60920;48.748;19.142;2023-05-14T09:45:57;33.89;29.64;49.82;;
72805;Laerm;60920;48.748;19.142;2023-05-14T09:48:23;33.88;29.76;44.39;;
72805;Laerm;60920;48.748;19.142;2023-05-14T09:50:49;33.12;28.60;41.81;;
72805;Laerm;60920;48.748;19.142;2023-05-14T09:53:16;33.42;30.31;38.86;;
72805;Laerm;60920;48.748;19.142;2023-05-14T09:55:41;36.22;29.51;50.74;;
72805;Laerm;60920;48.748;19.142;2023-05-14T09:58:07;33.12;29.07;41.96;;
72805;Laerm;60920;48.748;19.142;2023-05-14T10:00:33;33.28;29.46;42.01;;
72805;Laerm;60920;48.748;19.142;2023-05-14T10:02:58;32.66;28.84;39.76;;
72805;Laerm;60920;48.748;19.142;2023-05-14T10:05:26;33.11;29.61;40.00;;
72805;Laerm;60920;48.748;19.142;2023-05-14T10:07:52;33.04;28.91;44.19;;
72805;Laerm;60920;48.748;19.142;2023-05-14T10:10:18;33.42;28.63;38.95;;
72805;Laerm;60920;48.748;19.142;2023-05-14T10:12:50;34.84;28.74;47.69;;
72805;Laerm;60920;48.748;19.142;2023-05-14T10:15:19;33.34;29.05;42.06;;
72805;Laerm;60920;48.748;19.142;2023-05-14T10:17:47;32.62;28.76;39.04;;
72805;Laerm;60920;48.748;19.142;2023-05-14T10:20:14;33.75;29.56;39.53;;
72805;Laerm;60920;48.748;19.142;2023-05-14T10:22:40;33.33;28.52;42.46;;
72805;Laerm;60920;48.748;19.142;2023-05-14T10:25:06;33.40;29.44;41.52;;
72805;Laerm;60920;48.748;19.142;2023-05-14T10:27:32;34.38;31.00;44.95;;
72805;Laerm;60920;48.748;19.142;2023-05-14T10:29:57;33.27;29.23;40.35;;
72805;Laerm;60920;48.748;19.142;2023-05-14T10:32:23;33.77;28.81;40.86;;
72805;Laerm;60920;48.748;19.142;2023-05-14T10:34:50;32.94;28.96;41.09;;
72805;Laerm;60920;48.748;19.142;2023-05-14T10:37:17;33.60;29.63;40.99;;
72805;Laerm;60920;48.748;19.142;2023-05-14T10:39:46;33.11;28.88;42.83;;
72805;Laerm;60920;48.748;19.142;2023-05-14T10:42:16;33.38;30.24;37.22;;
72805;Laerm;60920;48.748;19.142;2023-05-14T10:47:14;33.72;29.91;45.49;;
72805;Laerm;60920;48.748;19.142;2023-05-14T10:49:42;33.48;29.43;50.11;;
72805;Laerm;60920;48.748;19.142;2023-05-14T10:52:08;33.46;29.45;38.15;;
72805;Laerm;60920;48.748;19.142;2023-05-14T10:54:35;32.95;29.88;42.00;;
72805;Laerm;60920;48.748;19.142;2023-05-14T10:57:00;34.30;29.37;45.22;;
72805;Laerm;60920;48.748;19.142;2023-05-14T10:59:26;33.75;29.55;42.14;;
72805;Laerm;60920;48.748;19.142;2023-05-14T11:01:51;33.71;29.84;39.04;;
72805;Laerm;60920;48.748;19.142;2023-05-14T11:04:17;33.86;30.41;43.21;;
72805;Laerm;60920;48.748;19.142;2023-05-14T11:06:43;34.48;29.68;43.01;;
72805;Laerm;60920;48.748;19.142;2023-05-14T11:09:09;34.59;30.19;46.45;;
72805;Laerm;60920;48.748;19.142;2023-05-14T11:11:35;34.48;30.60;42.02;;
72805;Laerm;60920;48.748;19.142;2023-05-14T11:14:01;34.36;31.31;38.30;;
72805;Laerm;60920;48.748;19.142;2023-05-14T11:16:26;35.67;31.75;44.52;;
72805;Laerm;60920;48.748;19.142;2023-05-14T11:19:01;34.26;30.57;41.24;;
72805;Laerm;60920;48.748;19.142;2023-05-14T11:21:30;33.43;29.31;37.91;;
72805;Laerm;60920;48.748;19.142;2023-05-14T11:23:58;35.23;31.45;42.13;;
72805;Laerm;60920;48.748;19.142;2023-05-14T11:26:23;35.10;29.62;45.28;;
72805;Laerm;60920;48.748;19.142;2023-05-14T11:28:49;35.12;29.88;54.55;;
72805;Laerm;60920;48.748;19.142;2023-05-14T11:31:14;35.52;31.11;42.80;;
72805;Laerm;60920;48.748;19.142;2023-05-14T11:33:39;34.88;29.48;43.03;;
72805;Laerm;60920;48.748;19.142;2023-05-14T11:36:05;34.57;31.04;45.78;;
72805;Laerm;60920;48.748;19.142;2023-05-14T11:38:30;34.53;30.85;43.41;;
72805;Laerm;60920;48.748;19.142;2023-05-14T11:40:57;35.04;30.95;42.88;;
72805;Laerm;60920;48.748;19.142;2023-05-14T11:43:23;35.24;30.50;45.51;;
72805;Laerm;60920;48.748;19.142;2023-05-14T11:45:49;33.87;29.45;41.77;;
72805;Laerm;60920;48.748;19.142;2023-05-14T11:48:15;34.27;29.55;43.82;;
72805;Laerm;60920;48.748;19.142;2023-05-14T11:50:48;34.40;30.54;43.62;;
72805;Laerm;60920;48.748;19.142;2023-05-14T11:53:15;35.09;30.00;44.77;;
72805;Laerm;60920;48.748;19.142;2023-05-14T11:55:41;34.15;30.56;44.09;;
72805;Laerm;60920;48.748;19.142;2023-05-14T11:58:06;34.59;31.41;41.18;;
72805;Laerm;60920;48.748;19.142;2023-05-14T12:00:31;35.11;30.44;45.99;;
72805;Laerm;60920;48.748;19.142;2023-05-14T12:02:58;35.04;31.48;39.00;;
72805;Laerm;60920;48.748;19.142;2023-05-14T12:05:23;35.63;31.11;40.66;;
72805;Laerm;60920;48.748;19.142;2023-05-14T12:07:49;34.18;29.73;41.64;;
72805;Laerm;60920;48.748;19.142;2023-05-14T12:10:14;34.37;29.89;46.77;;
72805;Laerm;60920;48.748;19.142;2023-05-14T12:12:39;35.20;31.29;46.09;;
72805;Laerm;60920;48.748;19.142;2023-05-14T12:15:12;35.22;31.39;54.02;;
72805;Laerm;60920;48.748;19.142;2023-05-14T12:17:38;35.24;30.77;50.17;;
72805;Laerm;60920;48.748;19.142;2023-05-14T12:20:03;39.34;31.04;54.62;;
72805;Laerm;60920;48.748;19.142;2023-05-14T12:22:32;35.61;31.62;46.48;;
72805;Laerm;60920;48.748;19.142;2023-05-14T12:24:58;35.40;31.40;46.99;;
72805;Laerm;60920;48.748;19.142;2023-05-14T12:27:24;34.92;30.02;42.01;;
72805;Laerm;60920;48.748;19.142;2023-05-14T12:30:00;35.74;31.39;43.13;;
72805;Laerm;60920;48.748;19.142;2023-05-14T12:32:27;36.29;32.57;43.80;;
72805;Laerm;60920;48.748;19.142;2023-05-14T12:34:52;35.37;31.87;42.11;;
72805;Laerm;60920;48.748;19.142;2023-05-14T12:37:18;36.37;31.90;48.62;;
72805;Laerm;60920;48.748;19.142;2023-05-14T12:39:43;35.83;31.50;41.14;;
72805;Laerm;60920;48.748;19.142;2023-05-14T12:42:08;35.18;31.35;41.83;;
72805;Laerm;60920;48.748;19.142;2023-05-14T12:44:34;36.00;32.22;40.92;;
72805;Laerm;60920;48.748;19.142;2023-05-14T12:46:59;36.73;32.76;45.83;;
72805;Laerm;60920;48.748;19.142;2023-05-14T12:49:24;35.99;32.42;45.52;;
72805;Laerm;60920;48.748;19.142;2023-05-14T12:51:50;36.27;31.34;44.99;;
72805;Laerm;60920;48.748;19.142;2023-05-14T12:54:15;37.68;33.11;42.02;;
72805;Laerm;60920;48.748;19.142;2023-05-14T12:56:41;37.23;33.42;43.56;;
72805;Laerm;60920;48.748;19.142;2023-05-14T12:59:06;37.66;33.54;42.14;;
72805;Laerm;60920;48.748;19.142;2023-05-14T13:01:31;37.81;34.77;44.88;;
72805;Laerm;60920;48.748;19.142;2023-05-14T13:03:57;38.18;35.10;45.52;;
72805;Laerm;60920;48.748;19.142;2023-05-14T13:06:23;37.80;33.78;47.02;;
72805;Laerm;60920;48.748;19.142;2023-05-14T13:08:48;37.51;34.02;47.86;;
72805;Laerm;60920;48.748;19.142;2023-05-14T13:11:14;37.71;34.04;46.74;;
72805;Laerm;60920;48.748;19.142;2023-05-14T13:13:39;39.16;35.58;45.55;;
72805;Laerm;60920;48.748;19.142;2023-05-14T13:16:05;38.36;33.75;46.33;;
72805;Laerm;60920;48.748;19.142;2023-05-14T13:18:30;38.00;33.77;44.20;;
72805;Laerm;60920;48.748;19.142;2023-05-14T13:20:56;38.29;34.11;46.87;;
72805;Laerm;60920;48.748;19.142;2023-05-14T13:23:21;38.11;34.73;46.37;;
72805;Laerm;60920;48.748;19.142;2023-05-14T13:25:46;37.51;34.30;42.65;;
72805;Laerm;60920;48.748;19.142;2023-05-14T13:28:12;37.06;33.97;41.28;;
72805;Laerm;60920;48.748;19.142;2023-05-14T13:30:37;38.14;35.21;44.48;;
72805;Laerm;60920;48.748;19.142;2023-05-14T13:33:02;37.11;34.54;40.81;;
72805;Laerm;60920;48.748;19.142;2023-05-14T13:35:28;37.71;34.37;44.86;;
72805;Laerm;60920;48.748;19.142;2023-05-14T13:37:53;37.26;34.94;41.23;;